SCO15WC EGPH-EGPH

Flight info

Callsign SCO15WC
Flight time 0h 5m
Altitude 22000
Route INPIP
Aircraft AT76/M-SDFGIRY/S

Departure

Time 2026-04-21 22:34
Airport Edinburgh Airport (EGPH)

Arrival

Time 2026-04-21 22:39
Airport Edinburgh Airport (EGPH)
Time Latitude Longitude Altitude Speed Heading
2026-04-21 22:33 55.85828 -3.65452 2205 ft 144 kts 65°
2026-04-21 22:34 55.86272 -3.63838 2094 ft 146 kts 65°
2026-04-21 22:34 55.86731 -3.62205 2006 ft 143 kts 64°
2026-04-21 22:34 55.87169 -3.60712 2039 ft 134 kts 64°
2026-04-21 22:34 55.87588 -3.59244 1958 ft 134 kts 64°
2026-04-21 22:35 55.88029 -3.57752 1836 ft 137 kts 63°
2026-04-21 22:35 55.88503 -3.56289 1757 ft 136 kts 60°
2026-04-21 22:35 55.88995 -3.54840 1647 ft 137 kts 61°
2026-04-21 22:35 55.89474 -3.53394 1579 ft 134 kts 61°
2026-04-21 22:36 55.90320 -3.50934 1642 ft 103 kts 60°
2026-04-21 22:36 55.90694 -3.49823 1559 ft 106 kts 62°
2026-04-21 22:36 55.91077 -3.48694 1458 ft 108 kts 60°
2026-04-21 22:37 55.91475 -3.47542 1333 ft 109 kts 59°
2026-04-21 22:37 55.91884 -3.46389 1162 ft 110 kts 59°
2026-04-21 22:37 55.92288 -3.45222 990 ft 110 kts 60°
2026-04-21 22:37 55.92679 -3.44065 837 ft 109 kts 60°
2026-04-21 22:38 55.93075 -3.42923 712 ft 108 kts 59°
2026-04-21 22:38 55.93335 -3.42161 590 ft 110 kts 59°
2026-04-21 22:38 55.93725 -3.41012 460 ft 107 kts 59°
2026-04-21 22:38 55.94114 -3.39877 315 ft 106 kts 59°
2026-04-21 22:39 55.94492 -3.38753 147 ft 106 kts 60°
2026-04-21 22:39 55.94829 -3.37747 112 ft 73 kts 60°
2026-04-21 22:39 55.95143 -3.36824 110 ft 63 kts 58°
2026-04-21 22:39 55.95261 -3.36449 107 ft 24 kts 86°
2026-04-21 22:40 55.95186 -3.36342 108 ft 0 kts 152°
2026-04-21 22:40 55.95185 -3.36341 108 ft 2 kts 152°
2026-04-21 22:40 55.95111 -3.36350 108 ft 18 kts 225°
2026-04-21 22:40 55.94998 -3.36443 109 ft 14 kts 238°
2026-04-21 22:41 55.94934 -3.36638 109 ft 16 kts 238°
2026-04-21 22:41 55.94905 -3.36665 109 ft 14 kts 176°
2026-04-21 22:41 55.94861 -3.36614 108 ft 0 kts 146°
2026-04-21 22:52 55.94872 -3.36627 108 ft 3 kts 146°
2026-04-21 22:52 55.94886 -3.36644 109 ft 2 kts 146°
2026-04-21 22:52 55.94900 -3.36660 109 ft 2 kts 146°
2026-04-21 22:52 55.94913 -3.36676 106 ft 2 kts 146°
2026-04-21 22:53 55.94915 -3.36678 109 ft 0 kts 146°
2026-04-21 22:53 55.94893 -3.36701 107 ft 13 kts 242°
2026-04-21 22:53 55.94924 -3.36875 109 ft 23 kts 275°
2026-04-21 22:53 55.94840 -3.37151 109 ft 20 kts 238°
2026-04-21 22:54 55.94753 -3.37406 109 ft 28 kts 237°
2026-04-21 22:54 55.94637 -3.37749 110 ft 37 kts 238°
2026-04-21 22:54 55.94482 -3.38205 107 ft 48 kts 237°
2026-04-21 22:54 55.94333 -3.38647 113 ft 40 kts 238°
2026-04-21 22:55 55.94365 -3.38944 110 ft 31 kts 334°
2026-04-21 22:55 55.94526 -3.38644 109 ft 62 kts 58°
2026-04-21 22:55 55.94843 -3.37718 140 ft 106 kts 58°
2026-04-21 22:55 55.95233 -3.36597 630 ft 105 kts 59°
2026-04-21 22:56 55.95761 -3.35292 586 ft 160 kts 50°
2026-04-21 22:56 55.96567 -3.33658 725 ft 176 kts 51°
2026-04-21 22:56 55.97434 -3.32007 1074 ft 193 kts 43°
2026-04-21 22:56 55.98480 -3.30460 1603 ft 196 kts 40°
2026-04-21 22:57 55.99640 -3.29109 2144 ft 199 kts 22°
2026-04-21 22:57 56.00967 -3.28578 2671 ft 199 kts 15°
2026-04-21 22:57 56.02336 -3.28116 3199 ft 201 kts 14°
2026-04-21 22:57 56.03727 -3.27781 3721 ft 204 kts
2026-04-21 22:58 56.05041 -3.28765 4236 ft 214 kts 319°
2026-04-21 22:58 56.05714 -3.31114 4767 ft 218 kts 278°
2026-04-21 22:58 56.05439 -3.33728 5311 ft 216 kts 237°
2026-04-21 22:58 56.04524 -3.35791 5820 ft 211 kts 226°
2026-04-21 22:59 56.03324 -3.37372 5953 ft 223 kts 196°
2026-04-21 22:59 56.01879 -3.38505 5975 ft 238 kts 216°
2026-04-21 22:59 56.00927 -3.41032 5991 ft 258 kts 252°
2026-04-21 22:59 56.00684 -3.44270 5995 ft 269 kts 266°
2026-04-21 23:00 56.00647 -3.47662 6001 ft 277 kts 270°
2026-04-21 23:00 56.00620 -3.51135 6002 ft 282 kts 267°
2026-04-21 23:00 56.00407 -3.54629 6006 ft 283 kts 260°
2026-04-21 23:00 55.99978 -3.58067 6001 ft 283 kts 255°
2026-04-21 23:01 55.99460 -3.61462 6001 ft 283 kts 253°
2026-04-21 23:01 55.98901 -3.64829 6004 ft 283 kts 253°
2026-04-21 23:01 55.98354 -3.68211 5999 ft 283 kts 254°
2026-04-21 23:01 55.97846 -3.71607 6001 ft 284 kts 255°
2026-04-21 23:02 55.97349 -3.75013 6003 ft 283 kts 255°
2026-04-21 23:02 55.96847 -3.78414 6008 ft 283 kts 255°
2026-04-21 23:02 55.96344 -3.81810 6006 ft 283 kts 255°
2026-04-21 23:02 55.95840 -3.85205 6004 ft 283 kts 255°
2026-04-21 23:03 55.95335 -3.88592 6006 ft 283 kts 255°
2026-04-21 23:03 55.94828 -3.91992 6011 ft 283 kts 255°
2026-04-21 23:03 55.94323 -3.95382 6013 ft 283 kts 254°
2026-04-21 23:03 55.93754 -3.98743 6013 ft 283 kts 248°
2026-04-21 23:04 55.92815 -4.01811 6015 ft 281 kts 232°
2026-04-21 23:04 55.91517 -4.04395 6024 ft 279 kts 221°
2026-04-21 23:04 55.90024 -4.06610 6022 ft 279 kts 215°
2026-04-21 23:04 55.88450 -4.08615 6021 ft 278 kts 212°
2026-04-21 23:05 55.86843 -4.10530 6020 ft 278 kts 211°
2026-04-21 23:05 55.85235 -4.12442 6017 ft 278 kts 212°
2026-04-21 23:05 55.83635 -4.14361 6021 ft 278 kts 212°
2026-04-21 23:05 55.82034 -4.16298 6018 ft 278 kts 212°
2026-04-21 23:06 55.80458 -4.18213 6028 ft 278 kts 212°
2026-04-21 23:06 55.78891 -4.20117 6364 ft 269 kts 212°
2026-04-21 23:06 55.77362 -4.21976 6704 ft 263 kts 212°
2026-04-21 23:06 55.75862 -4.23794 7049 ft 259 kts 212°
2026-04-21 23:07 55.74383 -4.25582 7372 ft 256 kts 211°
2026-04-21 23:07 55.72924 -4.27379 7710 ft 254 kts 212°
2026-04-21 23:07 55.71475 -4.29164 8039 ft 253 kts 212°
2026-04-21 23:07 55.70038 -4.30944 8368 ft 252 kts 212°
2026-04-21 23:08 55.68609 -4.32720 8705 ft 250 kts 212°
2026-04-21 23:08 55.67186 -4.34482 9044 ft 249 kts 212°
2026-04-21 23:08 55.65765 -4.36242 9357 ft 249 kts 212°
2026-04-21 23:08 55.64348 -4.38001 9703 ft 248 kts 211°
2026-04-21 23:09 55.62936 -4.39751 10059 ft 248 kts 212°
2026-04-21 23:09 55.61528 -4.41500 10408 ft 247 kts 212°
2026-04-21 23:09 55.60122 -4.43252 10736 ft 247 kts 212°
2026-04-21 23:09 55.58718 -4.44994 11067 ft 247 kts 212°
2026-04-21 23:10 55.57311 -4.46724 11394 ft 246 kts 211°
2026-04-21 23:10 55.55903 -4.48450 11726 ft 246 kts 211°
2026-04-21 23:10 55.54478 -4.50194 11875 ft 254 kts 211°
2026-04-21 23:10 55.53003 -4.51998 11932 ft 263 kts 211°
2026-04-21 23:11 55.51472 -4.53869 11954 ft 271 kts 212°
2026-04-21 23:11 55.49907 -4.55787 11961 ft 277 kts 212°
2026-04-21 23:11 55.48314 -4.57739 11970 ft 281 kts 212°
2026-04-21 23:11 55.46696 -4.59719 11975 ft 285 kts 212°
2026-04-21 23:12 55.45060 -4.61716 11972 ft 287 kts 212°
2026-04-21 23:12 55.43415 -4.63721 11971 ft 289 kts 212°
2026-04-21 23:12 55.41759 -4.65737 11973 ft 290 kts 212°
2026-04-21 23:12 55.40096 -4.67761 11974 ft 291 kts 212°
2026-04-21 23:13 55.38429 -4.69782 11976 ft 292 kts 212°
2026-04-21 23:13 55.36755 -4.71812 11971 ft 292 kts 212°
2026-04-21 23:13 55.35082 -4.73841 11971 ft 292 kts 212°
2026-04-21 23:13 55.33406 -4.75868 11973 ft 293 kts 211°
2026-04-21 23:14 55.31727 -4.77890 11962 ft 293 kts 212°
2026-04-21 23:14 55.30004 -4.79753 11960 ft 290 kts 205°
2026-04-21 23:14 55.28189 -4.81290 11965 ft 289 kts 202°
2026-04-21 23:14 55.26362 -4.82763 11965 ft 289 kts 202°
2026-04-21 23:15 55.24545 -4.84285 11962 ft 290 kts 203°
2026-04-21 23:15 55.22748 -4.85870 11961 ft 290 kts 204°
2026-04-21 23:15 55.20944 -4.87462 11952 ft 290 kts 204°
2026-04-21 23:15 55.19139 -4.89038 11956 ft 290 kts 204°
2026-04-21 23:16 55.17336 -4.90619 11957 ft 290 kts 204°
2026-04-21 23:16 55.15529 -4.92203 11950 ft 290 kts 204°
2026-04-21 23:16 55.13725 -4.93781 11954 ft 290 kts 204°
2026-04-21 23:16 55.11918 -4.95365 11952 ft 291 kts 204°
2026-04-21 23:17 55.10128 -4.96917 11947 ft 291 kts 204°
2026-04-21 23:17 55.08297 -4.98522 11944 ft 291 kts 204°
2026-04-21 23:17 55.06509 -5.00077 11947 ft 291 kts 204°
2026-04-21 23:17 55.04698 -5.01650 11937 ft 290 kts 204°
2026-04-21 23:18 55.02871 -5.03247 11944 ft 290 kts 204°
2026-04-21 23:18 55.01062 -5.04817 11944 ft 291 kts 204°
2026-04-21 23:18 54.99250 -5.06386 11943 ft 291 kts 204°
2026-04-21 23:18 54.97438 -5.07954 11945 ft 291 kts 204°
2026-04-21 23:19 54.95646 -5.09504 11940 ft 292 kts 204°
2026-04-21 23:19 54.93830 -5.11072 11936 ft 292 kts 204°
2026-04-21 23:19 54.92013 -5.12645 11936 ft 292 kts 204°
2026-04-21 23:19 54.90196 -5.14212 11847 ft 293 kts 204°
2026-04-21 23:20 54.88539 -5.16322 11479 ft 305 kts 227°
2026-04-21 23:20 54.87431 -5.19491 11136 ft 309 kts 244°
2026-04-21 23:20 54.86696 -5.22992 10830 ft 309 kts 250°
2026-04-21 23:20 54.86052 -5.26553 10489 ft 309 kts 251°
2026-04-21 23:21 54.85390 -5.30101 10028 ft 309 kts 250°
2026-04-21 23:21 54.84674 -5.33583 9555 ft 300 kts 248°
2026-04-21 23:21 54.83991 -5.36797 8988 ft 270 kts 248°
2026-04-21 23:21 54.83365 -5.39743 8359 ft 252 kts 248°
2026-04-21 23:22 54.82775 -5.42532 7723 ft 241 kts 248°
2026-04-21 23:22 54.82209 -5.45214 7099 ft 232 kts 248°
2026-04-21 23:22 54.81390 -5.47481 6412 ft 220 kts 216°
2026-04-21 23:22 54.80030 -5.48394 5709 ft 208 kts 177°
2026-04-21 23:23 54.78660 -5.47920 5086 ft 197 kts 161°
2026-04-21 23:23 54.77338 -5.47311 4462 ft 196 kts 162°
2026-04-21 23:23 54.76023 -5.46777 4016 ft 187 kts 165°
2026-04-21 23:23 54.74823 -5.46428 3958 ft 164 kts 168°
2026-04-21 23:24 54.73747 -5.46247 3932 ft 149 kts 172°
2026-04-21 23:24 54.72748 -5.46209 3916 ft 138 kts 175°
2026-04-21 23:24 54.71781 -5.46272 3920 ft 152 kts 178°
2026-04-21 23:24 54.70571 -5.46467 3937 ft 191 kts 183°
2026-04-21 23:25 54.69177 -5.46847 3942 ft 219 kts 187°
2026-04-21 23:25 54.67629 -5.47540 3971 ft 238 kts 193°
2026-04-21 23:25 54.66017 -5.48508 3995 ft 252 kts 199°
2026-04-21 23:25 54.64384 -5.49770 3997 ft 262 kts 203°
2026-04-21 23:26 54.62785 -5.51334 3995 ft 266 kts 209°
2026-04-21 23:26 54.61273 -5.53211 3996 ft 269 kts 214°
2026-04-21 23:26 54.59822 -5.55259 3998 ft 270 kts 216°
2026-04-21 23:26 54.58383 -5.57340 3993 ft 270 kts 216°
2026-04-21 23:27 54.56941 -5.59396 3993 ft 269 kts 215°
2026-04-21 23:27 54.55479 -5.61414 3995 ft 268 kts 215°
2026-04-21 23:27 54.54525 -5.62737 4002 ft 253 kts 214°
2026-04-21 23:27 54.53196 -5.64559 3991 ft 236 kts 214°
2026-04-21 23:28 54.51947 -5.66255 3992 ft 222 kts 213°
2026-04-21 23:28 54.50762 -5.67863 3998 ft 212 kts 213°
2026-04-21 23:28 54.49623 -5.69415 3992 ft 205 kts 213°
2026-04-21 23:28 54.48538 -5.70893 3995 ft 198 kts 212°
2026-04-21 23:29 54.47472 -5.72345 3994 ft 193 kts 212°
2026-04-21 23:29 54.46429 -5.73764 3994 ft 190 kts 212°
2026-04-21 23:29 54.45400 -5.75165 3991 ft 186 kts 212°
2026-04-21 23:29 54.44392 -5.76533 3992 ft 184 kts 212°
2026-04-21 23:30 54.43396 -5.77880 3995 ft 182 kts 211°
2026-04-21 23:30 54.42389 -5.79233 3995 ft 185 kts 211°
2026-04-21 23:30 54.41363 -5.80600 3995 ft 188 kts 211°
2026-04-21 23:30 54.40325 -5.81991 4003 ft 191 kts 212°
2026-04-21 23:31 54.39275 -5.83409 3995 ft 193 kts 212°
2026-04-21 23:31 54.38220 -5.84837 3976 ft 193 kts 212°
2026-04-21 23:31 54.37162 -5.86272 3990 ft 194 kts 212°
2026-04-21 23:31 54.36078 -5.87742 3983 ft 198 kts 212°
2026-04-21 23:32 54.34999 -5.89200 3984 ft 202 kts 212°
2026-04-21 23:32 54.33922 -5.90750 3974 ft 205 kts 223°
2026-04-21 23:32 54.33371 -5.93065 3816 ft 223 kts 260°
2026-04-21 23:32 54.33263 -5.95849 3321 ft 246 kts 264°
2026-04-21 23:33 54.33144 -5.98878 2835 ft 260 kts 262°
2026-04-21 23:33 54.32885 -6.01948 2594 ft 260 kts 256°
2026-04-21 23:33 54.32472 -6.04935 2482 ft 255 kts 251°
2026-04-21 23:33 54.31997 -6.07817 2405 ft 249 kts 250°
2026-04-21 23:34 54.31524 -6.10630 2371 ft 242 kts 251°
2026-04-21 23:34 54.31070 -6.13360 2392 ft 237 kts 251°
2026-04-21 23:34 54.30643 -6.16073 2384 ft 235 kts 251°
2026-04-21 23:34 54.30219 -6.18771 2373 ft 234 kts 252°
2026-04-21 23:35 54.29821 -6.21450 2366 ft 230 kts 256°
2026-04-21 23:35 54.29996 -6.24134 2360 ft 231 kts 296°
2026-04-21 23:35 54.30962 -6.26269 2357 ft 226 kts 320°
2026-04-21 23:35 54.32183 -6.27929 2364 ft 223 kts 332°
2026-04-21 23:36 54.33525 -6.29229 2366 ft 221 kts 339°
2026-04-21 23:36 54.34919 -6.30348 2371 ft 221 kts 341°
2026-04-21 23:36 54.36323 -6.31431 2366 ft 221 kts 341°
2026-04-21 23:36 54.37719 -6.32517 2361 ft 220 kts 341°
2026-04-21 23:37 54.39112 -6.33627 2364 ft 220 kts 340°
2026-04-21 23:37 54.40490 -6.34761 2369 ft 220 kts 340°
2026-04-21 23:37 54.41868 -6.35923 2382 ft 221 kts 339°
2026-04-21 23:37 54.43248 -6.37095 2378 ft 222 kts 339°
2026-04-21 23:38 54.44635 -6.38267 2375 ft 222 kts 339°
2026-04-21 23:38 54.46023 -6.39436 2378 ft 223 kts 340°
2026-04-21 23:38 54.47417 -6.40601 2367 ft 223 kts 340°
2026-04-21 23:38 54.48806 -6.41755 2370 ft 221 kts 339°
2026-04-21 23:39 54.50157 -6.42886 2365 ft 217 kts 339°
2026-04-21 23:39 54.51522 -6.44037 2369 ft 214 kts 339°
2026-04-21 23:39 54.52837 -6.45142 2370 ft 212 kts 340°
2026-04-21 23:39 54.54157 -6.46248 2379 ft 211 kts 340°
2026-04-21 23:40 54.55473 -6.47345 2378 ft 210 kts 340°
2026-04-21 23:40 54.56817 -6.47898 2373 ft 192 kts 15°
2026-04-21 23:40 54.57942 -6.46951 2377 ft 176 kts 46°
2026-04-21 23:40 54.58810 -6.45498 2381 ft 166 kts 56°
2026-04-21 23:41 54.59480 -6.44027 2385 ft 150 kts 62°
2026-04-21 23:41 54.60014 -6.42560 2389 ft 139 kts 67°
2026-04-21 23:41 54.60472 -6.41132 2390 ft 133 kts 69°
2026-04-21 23:41 54.60885 -6.39742 2394 ft 129 kts 70°
2026-04-21 23:42 54.61248 -6.38373 2307 ft 122 kts 74°
2026-04-21 23:42 54.61598 -6.36956 1805 ft 132 kts 71°
2026-04-21 23:42 54.61949 -6.35575 1645 ft 122 kts 71°
2026-04-21 23:42 54.62300 -6.34273 1504 ft 118 kts 68°
2026-04-21 23:43 54.62657 -6.32999 1243 ft 121 kts 68°
2026-04-21 23:43 54.63006 -6.31739 1115 ft 115 kts 69°
2026-04-21 23:43 54.63339 -6.30441 916 ft 114 kts 69°
2026-04-21 23:43 54.63668 -6.29244 794 ft 108 kts 68°
2026-04-21 23:44 54.63980 -6.28099 671 ft 104 kts 67°
2026-04-21 23:44 54.64284 -6.26984 515 ft 104 kts 68°
2026-04-21 23:44 54.64590 -6.25874 434 ft 100 kts 68°
2026-04-21 23:44 54.64887 -6.24798 355 ft 100 kts 68°
2026-04-21 23:45 54.65176 -6.23718 278 ft 100 kts 68°
2026-04-21 23:45 54.65616 -6.22056 229 ft 63 kts 62°
2026-04-21 23:45 54.65794 -6.21426 240 ft 50 kts 63°
2026-04-21 23:46 54.65909 -6.21352 245 ft 18 kts 336°
2026-04-21 23:46 54.66009 -6.21496 244 ft 17 kts 325°
2026-04-21 23:46 54.66092 -6.21561 242 ft 0 kts 337°